createdAt,value
2019-02-24T00:00:51.691Z,18.40
2019-02-24T00:03:21.112Z,20.60
2019-02-24T00:05:50.602Z,19.80
2019-02-24T00:08:19.827Z,19.33
2019-02-24T00:10:48.971Z,19.98
2019-02-24T00:13:18.204Z,17.63
2019-02-24T00:15:47.526Z,19.57
2019-02-24T00:18:17.203Z,18.70
2019-02-24T00:20:46.380Z,18.62
2019-02-24T00:23:15.486Z,17.30
2019-02-24T00:25:45.211Z,19.15
2019-02-24T00:28:14.395Z,19.00
2019-02-24T00:30:43.614Z,17.40
2019-02-24T00:33:13.427Z,17.33
2019-02-24T00:35:42.576Z,17.50
2019-02-24T00:38:12.107Z,18.13
2019-02-24T00:40:41.239Z,19.37
2019-02-24T00:43:10.467Z,19.73
2019-02-24T00:45:39.619Z,19.90
2019-02-24T00:48:09.199Z,19.63
2019-02-24T00:50:38.397Z,19.77
2019-02-24T00:53:07.543Z,18.67
2019-02-24T00:55:36.775Z,18.97
2019-02-24T00:58:05.968Z,17.90
2019-02-24T01:00:35.406Z,17.27
2019-02-24T01:03:04.594Z,16.48
2019-02-24T01:05:33.740Z,16.20
2019-02-24T01:08:03.083Z,14.78
2019-02-24T01:10:32.589Z,17.90
2019-02-24T01:13:01.724Z,17.17
2019-02-24T01:15:31.072Z,16.30
2019-02-24T01:18:03.179Z,15.03
2019-02-24T01:20:32.772Z,14.60
2019-02-24T01:23:04.051Z,16.30
2019-02-24T01:25:33.963Z,15.60
2019-02-24T01:28:04.617Z,13.22
2019-02-24T01:30:34.253Z,14.07
2019-02-24T01:33:03.394Z,13.32
2019-02-24T01:35:36.830Z,12.40
2019-02-24T01:38:08.207Z,14.13
2019-02-24T01:40:37.972Z,12.43
2019-02-24T01:43:11.438Z,12.80
2019-02-24T01:45:40.823Z,13.97
2019-02-24T01:48:10.080Z,13.30
2019-02-24T01:50:45.486Z,12.73
2019-02-24T01:53:17.307Z,12.93
2019-02-24T01:55:46.737Z,13.43
2019-02-24T01:58:17.194Z,13.27
2019-02-24T02:00:46.973Z,14.53
2019-02-24T02:03:17.976Z,13.60
2019-02-24T02:05:47.539Z,15.13
2019-02-24T02:08:17.240Z,15.13
2019-02-24T02:10:48.017Z,14.60
2019-02-24T02:13:17.787Z,14.25
2019-02-24T02:15:47.365Z,15.53
2019-02-24T02:18:18.651Z,16.30
2019-02-24T02:20:47.783Z,16.05
2019-02-24T02:23:16.923Z,16.53
2019-02-24T02:25:46.170Z,16.57
2019-02-24T02:28:15.349Z,15.33
2019-02-24T02:30:44.539Z,16.60
2019-02-24T02:33:13.743Z,15.40
2019-02-24T02:35:43.009Z,15.80
2019-02-24T02:38:12.165Z,15.63
2019-02-24T02:40:41.383Z,14.40
2019-02-24T02:43:11.400Z,15.03
2019-02-24T02:45:40.603Z,14.33
2019-02-24T02:48:10.412Z,14.70
2019-02-24T02:50:39.623Z,14.57
2019-02-24T02:53:08.823Z,13.40
2019-02-24T02:55:37.946Z,12.35
2019-02-24T02:58:07.427Z,11.35
2019-02-24T03:00:36.648Z,10.37
2019-02-24T03:03:05.891Z,11.33
2019-02-24T03:05:35.071Z,12.30
2019-02-24T03:08:14.584Z,11.90
2019-02-24T03:10:44.019Z,11.30
2019-02-24T03:13:13.612Z,11.43
2019-02-24T03:15:42.846Z,11.40
2019-02-24T03:18:12.695Z,12.07
2019-02-24T03:20:41.854Z,11.10
2019-02-24T03:23:10.963Z,11.10
2019-02-24T03:25:40.185Z,11.35
2019-02-24T03:28:09.683Z,12.10
2019-02-24T03:30:39.164Z,12.30
2019-02-24T03:33:08.396Z,12.80
2019-02-24T03:35:37.908Z,12.83
2019-02-24T03:38:07.108Z,12.40
2019-02-24T03:40:36.331Z,11.33
2019-02-24T03:43:05.603Z,12.40
2019-02-24T03:45:34.773Z,12.23
2019-02-24T03:48:03.999Z,11.43
2019-02-24T03:50:33.256Z,10.30
2019-02-24T03:53:02.735Z,10.40
2019-02-24T03:55:31.854Z,9.20
2019-02-24T03:58:01.527Z,7.33
2019-02-24T04:00:31.169Z,6.80
2019-02-24T04:03:00.593Z,5.97
2019-02-24T04:05:29.989Z,6.53
2019-02-24T04:07:59.133Z,8.50
2019-02-24T04:10:28.661Z,10.87
2019-02-24T04:12:57.860Z,9.07
2019-02-24T04:15:27.010Z,8.87
2019-02-24T04:17:56.586Z,10.50
2019-02-24T04:20:25.778Z,7.53
2019-02-24T04:22:55.031Z,8.50
2019-02-24T04:25:24.146Z,8.23
2019-02-24T04:27:53.899Z,7.70
2019-02-24T04:30:24.260Z,8.00
2019-02-24T04:32:53.769Z,7.60
2019-02-24T04:35:23.279Z,7.43
2019-02-24T04:37:52.665Z,9.50
2019-02-24T04:40:22.094Z,7.40
2019-02-24T04:42:51.358Z,8.47
2019-02-24T04:45:20.882Z,7.57
2019-02-24T04:47:50.334Z,8.30
2019-02-24T04:50:19.618Z,8.80
2019-02-24T04:52:48.803Z,8.40
2019-02-24T04:55:17.975Z,8.37
2019-02-24T04:57:47.207Z,9.20
2019-02-24T05:00:16.705Z,8.23
2019-02-24T05:02:45.847Z,7.30
2019-02-24T05:05:14.979Z,7.85
2019-02-24T05:07:44.115Z,7.60
2019-02-24T05:10:13.490Z,7.15
2019-02-24T05:12:42.573Z,6.92
2019-02-24T05:15:11.786Z,8.25
2019-02-24T05:17:40.925Z,7.85
2019-02-24T05:20:10.965Z,9.25
2019-02-24T05:22:40.183Z,10.10
2019-02-24T05:25:09.823Z,10.37
2019-02-24T05:27:39.004Z,9.40
2019-02-24T05:30:08.155Z,11.12
2019-02-24T05:32:37.300Z,9.37
2019-02-24T05:35:06.802Z,10.13
2019-02-24T05:37:36.346Z,9.25
2019-02-24T05:40:06.058Z,9.90
2019-02-24T05:42:36.062Z,10.40
2019-02-24T05:45:05.535Z,9.25
2019-02-24T05:47:34.703Z,10.40
2019-02-24T05:50:03.879Z,9.43
2019-02-24T05:52:33.129Z,9.30
2019-02-24T05:55:02.441Z,8.30
2019-02-24T05:57:32.218Z,8.70
2019-02-24T06:00:02.866Z,9.23
2019-02-24T06:02:32.381Z,8.75
2019-02-24T06:05:04.455Z,8.40
2019-02-24T06:07:33.606Z,8.20
2019-02-24T06:10:03.074Z,8.20
2019-02-24T06:12:32.647Z,7.10
2019-02-24T06:15:02.658Z,7.20
2019-02-24T06:17:31.851Z,7.20
2019-02-24T06:20:01.454Z,7.43
2019-02-24T06:22:30.867Z,7.30
2019-02-24T06:25:00.417Z,7.20
2019-02-24T06:27:30.271Z,7.07
2019-02-24T06:30:04.832Z,7.17
2019-02-24T06:32:30.924Z,7.10
2019-02-24T06:35:00.225Z,7.40
2019-02-24T06:37:29.736Z,7.05
2019-02-24T06:39:59.035Z,7.10
2019-02-24T06:42:28.447Z,7.50
2019-02-24T06:44:57.835Z,8.00
2019-02-24T06:47:27.229Z,9.13
2019-02-24T06:49:56.448Z,7.87
2019-02-24T06:52:28.028Z,8.90
2019-02-24T06:54:56.918Z,9.10
2019-02-24T06:57:26.768Z,9.70
2019-02-24T06:59:55.951Z,8.80
2019-02-24T07:02:25.212Z,9.90
2019-02-24T07:04:54.457Z,7.87
2019-02-24T07:07:24.118Z,10.57
2019-02-24T07:09:53.523Z,10.00
2019-02-24T07:12:22.985Z,11.13
2019-02-24T07:14:52.688Z,12.20
2019-02-24T07:17:22.156Z,11.33
2019-02-24T07:19:51.364Z,12.00
2019-02-24T07:22:21.361Z,10.53
2019-02-24T07:24:50.749Z,10.67
2019-02-24T07:27:20.429Z,9.90
2019-02-24T07:29:50.043Z,9.60
2019-02-24T07:32:19.170Z,8.70
2019-02-24T07:34:48.317Z,8.50
2019-02-24T07:37:17.479Z,8.08
2019-02-24T07:39:47.608Z,10.00
2019-02-24T07:42:16.709Z,7.87
2019-02-24T07:44:45.867Z,8.28
2019-02-24T07:47:15.193Z,8.85
2019-02-24T07:49:44.457Z,9.10
2019-02-24T07:52:13.738Z,8.53
2019-02-24T07:54:43.408Z,7.90
2019-02-24T07:57:12.639Z,9.70
2019-02-24T07:59:41.842Z,10.27
2019-02-24T08:02:11.658Z,12.13
2019-02-24T08:04:40.976Z,11.63
2019-02-24T08:07:10.124Z,12.63
2019-02-24T08:09:39.628Z,11.07
2019-02-24T08:12:08.823Z,11.07
2019-02-24T08:14:38.407Z,7.92
2019-02-24T08:17:07.931Z,7.58
2019-02-24T08:19:37.325Z,8.08
2019-02-24T08:22:06.635Z,10.60
2019-02-24T08:24:35.999Z,9.83
2019-02-24T08:27:06.256Z,10.03
2019-02-24T08:29:35.407Z,9.07
2019-02-24T08:32:05.218Z,8.90
2019-02-24T08:34:34.965Z,9.87
2019-02-24T08:37:04.566Z,8.60
2019-02-24T08:39:33.689Z,9.60
2019-02-24T08:42:02.917Z,8.93
2019-02-24T08:44:32.262Z,8.80
2019-02-24T08:47:01.861Z,9.23
2019-02-24T08:49:31.557Z,9.47
2019-02-24T08:52:00.759Z,9.63
2019-02-24T08:54:29.975Z,7.67
2019-02-24T08:56:59.170Z,7.22
2019-02-24T08:59:28.618Z,7.60
2019-02-24T09:01:58.139Z,6.90
2019-02-24T09:04:28.104Z,7.62
2019-02-24T09:06:57.335Z,7.67
2019-02-24T09:09:26.823Z,7.67
2019-02-24T09:11:55.972Z,7.60
2019-02-24T09:14:26.069Z,8.28
2019-02-24T09:16:55.251Z,7.90
2019-02-24T09:19:25.625Z,7.90
2019-02-24T09:21:55.340Z,6.83
2019-02-24T09:24:24.664Z,7.23
2019-02-24T09:26:53.862Z,8.48
2019-02-24T09:29:23.125Z,8.60
2019-02-24T09:31:52.349Z,8.35
2019-02-24T09:34:21.870Z,7.23
2019-02-24T09:36:51.080Z,7.87
2019-02-24T09:39:20.326Z,7.40
2019-02-24T09:41:49.863Z,7.40
2019-02-24T09:44:19.805Z,7.03
2019-02-24T09:46:48.990Z,6.92
2019-02-24T09:49:18.121Z,6.47
2019-02-24T09:51:47.683Z,7.08
2019-02-24T09:54:17.181Z,6.55
2019-02-24T09:56:47.088Z,6.67
2019-02-24T09:59:16.234Z,7.13
2019-02-24T10:01:45.500Z,7.90
2019-02-24T10:04:14.726Z,8.00
2019-02-24T10:06:44.305Z,7.63
2019-02-24T10:09:13.485Z,9.23
2019-02-24T10:11:42.959Z,7.97
2019-02-24T10:14:12.106Z,6.90
2019-02-24T10:16:41.332Z,6.97
2019-02-24T10:19:10.836Z,7.50
2019-02-24T10:21:40.066Z,8.28
2019-02-24T10:24:09.305Z,7.33
2019-02-24T10:26:38.525Z,6.97
2019-02-24T10:29:07.774Z,6.90
2019-02-24T10:31:37.309Z,6.40
2019-02-24T10:34:07.705Z,6.53
2019-02-24T10:36:37.038Z,7.70
2019-02-24T10:39:06.548Z,5.97
2019-02-24T10:41:37.427Z,6.43
2019-02-24T10:44:06.983Z,7.25
2019-02-24T10:46:36.216Z,6.93
2019-02-24T10:49:06.196Z,6.03
2019-02-24T10:51:35.397Z,7.37
2019-02-24T10:54:04.541Z,6.90
2019-02-24T10:56:33.723Z,8.07
2019-02-24T10:59:03.588Z,6.90
2019-02-24T11:01:32.800Z,6.03
2019-02-24T11:04:01.994Z,6.07
2019-02-24T11:06:31.179Z,6.03
2019-02-24T11:09:00.430Z,6.80
2019-02-24T11:11:30.056Z,6.30
2019-02-24T11:13:59.678Z,5.93
2019-02-24T11:16:28.919Z,6.47
2019-02-24T11:18:58.059Z,6.40
2019-02-24T11:21:30.344Z,6.50
2019-02-24T11:23:59.834Z,6.23
2019-02-24T11:26:29.463Z,6.22
2019-02-24T11:28:59.344Z,5.92
2019-02-24T11:31:28.827Z,5.13
2019-02-24T11:33:58.313Z,6.03
2019-02-24T11:36:27.836Z,5.63
2019-02-24T11:38:57.366Z,5.40
2019-02-24T11:41:26.988Z,5.90
2019-02-24T11:44:02.841Z,6.45
2019-02-24T11:46:32.540Z,6.55
2019-02-24T11:49:01.925Z,6.10
2019-02-24T11:51:31.161Z,6.73
2019-02-24T11:54:00.951Z,6.07
2019-02-24T11:56:30.610Z,5.97
2019-02-24T11:59:00.055Z,5.50
2019-02-24T12:01:29.670Z,5.90
2019-02-24T12:03:59.302Z,5.63
2019-02-24T12:06:29.187Z,5.37
2019-02-24T12:09:05.073Z,5.00
2019-02-24T12:11:30.087Z,5.47
2019-02-24T12:13:59.448Z,5.20
2019-02-24T12:16:29.195Z,5.10
2019-02-24T12:18:59.442Z,5.00
2019-02-24T12:21:29.148Z,5.20
2019-02-24T12:23:58.563Z,5.40
2019-02-24T12:26:28.948Z,4.73
2019-02-24T12:28:58.570Z,4.63
2019-02-24T12:31:27.822Z,5.20
2019-02-24T12:33:57.776Z,4.20
2019-02-24T12:36:27.012Z,4.87
2019-02-24T12:38:56.287Z,5.10
2019-02-24T12:41:25.509Z,4.80
2019-02-24T12:43:54.664Z,5.00
2019-02-24T12:46:23.943Z,4.57
2019-02-24T12:48:53.522Z,4.60
2019-02-24T12:51:23.466Z,4.58
2019-02-24T12:53:52.771Z,4.50
2019-02-24T12:56:22.036Z,4.67
2019-02-24T12:58:51.287Z,5.23
2019-02-24T13:01:20.591Z,5.30
2019-02-24T13:03:50.181Z,4.78
2019-02-24T13:06:19.698Z,5.03
2019-02-24T13:08:48.972Z,5.13
2019-02-24T13:11:18.212Z,4.70
2019-02-24T13:13:47.706Z,5.63
2019-02-24T13:16:17.074Z,4.93
2019-02-24T13:18:46.867Z,5.03
2019-02-24T13:21:16.368Z,5.87
2019-02-24T13:23:45.774Z,5.10
2019-02-24T13:26:15.041Z,4.77
2019-02-24T13:28:50.466Z,5.80
2019-02-24T13:31:15.108Z,5.30
2019-02-24T13:33:44.287Z,5.13
2019-02-24T13:36:13.519Z,5.97
2019-02-24T13:38:42.968Z,5.73
2019-02-24T13:41:12.148Z,5.92
2019-02-24T13:43:41.266Z,6.05
2019-02-24T13:46:10.510Z,6.10
2019-02-24T13:48:40.016Z,6.03
2019-02-24T13:51:09.608Z,6.00
2019-02-24T13:53:39.393Z,5.60
2019-02-24T13:56:08.941Z,5.80
2019-02-24T13:58:38.058Z,6.33
2019-02-24T14:01:07.449Z,6.63
2019-02-24T14:03:36.760Z,5.70
2019-02-24T14:06:05.915Z,6.00
2019-02-24T14:08:35.631Z,5.70
2019-02-24T14:11:04.871Z,6.40
2019-02-24T14:13:34.067Z,7.03
2019-02-24T14:16:03.231Z,7.07
2019-02-24T14:18:32.479Z,6.40
2019-02-24T14:21:01.918Z,6.50
2019-02-24T14:23:32.012Z,5.97
2019-02-24T14:26:01.456Z,7.20
2019-02-24T14:28:30.620Z,5.97
2019-02-24T14:31:00.043Z,6.73
2019-02-24T14:33:29.375Z,6.23
2019-02-24T14:35:58.501Z,6.03
2019-02-24T14:38:27.742Z,6.20
2019-02-24T14:40:56.930Z,5.87
2019-02-24T14:43:26.158Z,6.13
2019-02-24T14:45:55.413Z,6.00
2019-02-24T14:48:24.874Z,5.93
2019-02-24T14:50:54.456Z,5.77
2019-02-24T14:53:23.551Z,5.87
2019-02-24T14:55:52.692Z,4.80
2019-02-24T14:58:21.951Z,5.20
2019-02-24T15:00:51.161Z,5.10
2019-02-24T15:03:20.286Z,5.60
2019-02-24T15:05:49.598Z,5.80
2019-02-24T15:08:18.799Z,5.47
2019-02-24T15:10:57.415Z,6.60
2019-02-24T15:13:26.593Z,6.23
2019-02-24T15:15:55.909Z,5.90
2019-02-24T15:18:25.041Z,6.30
2019-02-24T15:20:54.553Z,6.78
2019-02-24T15:23:23.696Z,6.10
2019-02-24T15:25:52.839Z,6.93
2019-02-24T15:28:22.051Z,6.50
2019-02-24T15:30:54.107Z,6.58
2019-02-24T15:33:23.367Z,6.30
2019-02-24T15:35:52.515Z,6.77
2019-02-24T15:38:21.792Z,6.60
2019-02-24T15:40:51.307Z,5.97
2019-02-24T15:43:20.476Z,5.83
2019-02-24T15:45:50.123Z,5.77
2019-02-24T15:48:19.315Z,5.37
2019-02-24T15:50:48.470Z,5.58
2019-02-24T15:53:17.730Z,6.33
2019-02-24T15:55:46.943Z,6.03
2019-02-24T15:58:17.813Z,5.80
2019-02-24T16:00:47.190Z,5.92
2019-02-24T16:03:19.891Z,5.67
2019-02-24T16:05:49.059Z,5.73
2019-02-24T16:08:18.305Z,5.33
2019-02-24T16:10:47.545Z,5.37
2019-02-24T16:13:17.332Z,5.53
2019-02-24T16:15:47.117Z,6.00
2019-02-24T16:18:16.376Z,5.53
2019-02-24T16:20:46.116Z,5.50
2019-02-24T16:23:15.671Z,6.37
2019-02-24T16:25:45.015Z,5.97
2019-02-24T16:28:14.244Z,6.33
2019-02-24T16:30:43.487Z,5.77
2019-02-24T16:33:12.666Z,5.77
2019-02-24T16:35:42.167Z,5.97
2019-02-24T16:38:11.395Z,5.70
2019-02-24T16:40:40.659Z,5.40
2019-02-24T16:43:09.912Z,6.10
2019-02-24T16:45:39.538Z,5.90
2019-02-24T16:48:09.311Z,6.17
2019-02-24T16:50:38.493Z,5.87
2019-02-24T16:53:09.737Z,6.13
2019-02-24T16:55:38.919Z,5.40
2019-02-24T16:58:10.239Z,5.17
2019-02-24T17:00:39.869Z,6.07
2019-02-24T17:03:09.112Z,5.13
2019-02-24T17:05:39.165Z,5.43
2019-02-24T17:08:08.307Z,6.37
2019-02-24T17:10:37.635Z,5.45
2019-02-24T17:13:06.826Z,6.20
2019-02-24T17:15:36.107Z,7.37
2019-02-24T17:18:05.543Z,6.70
2019-02-24T17:21:03.295Z,6.80
2019-02-24T17:23:33.083Z,5.53
2019-02-24T17:26:02.238Z,5.43
2019-02-24T17:28:31.508Z,6.43
2019-02-24T17:31:01.408Z,6.30
2019-02-24T17:33:32.944Z,7.33
2019-02-24T17:36:02.176Z,7.60
2019-02-24T17:38:36.348Z,6.77
2019-02-24T17:41:06.135Z,7.67
2019-02-24T17:43:35.434Z,7.90
2019-02-24T17:46:04.611Z,8.90
2019-02-24T17:48:34.245Z,8.50
2019-02-24T17:51:03.574Z,9.23
2019-02-24T17:53:32.743Z,8.60
2019-02-24T17:56:02.240Z,7.13
2019-02-24T17:58:36.437Z,6.13
2019-02-24T18:01:12.654Z,5.77
2019-02-24T18:03:42.239Z,7.13
2019-02-24T18:06:11.492Z,5.67
2019-02-24T18:08:40.724Z,6.90
2019-02-24T18:11:10.163Z,6.83
2019-02-24T18:13:39.763Z,7.22
2019-02-24T18:16:09.380Z,8.70
2019-02-24T18:18:43.122Z,8.83
2019-02-24T18:21:12.705Z,8.10
2019-02-24T18:23:42.414Z,8.30
2019-02-24T18:26:11.920Z,9.37
2019-02-24T18:28:41.515Z,9.50
2019-02-24T18:31:11.104Z,9.90
2019-02-24T18:33:48.174Z,10.10
2019-02-24T18:36:12.312Z,9.47
2019-02-24T18:38:44.610Z,10.53
2019-02-24T18:41:14.516Z,11.33
2019-02-24T18:43:43.739Z,10.97
2019-02-24T18:46:13.043Z,10.17
2019-02-24T18:48:42.771Z,12.63
2019-02-24T18:51:12.045Z,13.70
2019-02-24T18:53:41.248Z,15.90
2019-02-24T18:56:10.581Z,14.37
2019-02-24T18:58:39.805Z,15.43
2019-02-24T19:01:12.065Z,15.23
2019-02-24T19:03:41.802Z,14.37
2019-02-24T19:06:11.206Z,13.20
2019-02-24T19:08:40.496Z,13.77
2019-02-24T19:11:10.373Z,12.40
2019-02-24T19:13:39.853Z,10.10
2019-02-24T19:16:09.136Z,10.27
2019-02-24T19:18:38.419Z,10.10
2019-02-24T19:21:07.714Z,9.57
2019-02-24T19:23:37.057Z,9.70
2019-02-24T19:26:06.473Z,9.20
2019-02-24T19:28:35.811Z,13.57
2019-02-24T19:31:05.180Z,13.13
2019-02-24T19:33:34.662Z,9.73
2019-02-24T19:36:03.965Z,10.93
2019-02-24T19:38:33.281Z,10.53
2019-02-24T19:41:07.274Z,10.80
2019-02-24T19:43:36.513Z,10.97
2019-02-24T19:46:05.833Z,10.80
2019-02-24T19:48:41.786Z,11.78
2019-02-24T19:51:06.791Z,12.63
2019-02-24T19:53:36.156Z,13.90
2019-02-24T19:56:05.319Z,11.43
2019-02-24T19:58:34.735Z,11.00
2019-02-24T20:01:04.123Z,11.75
2019-02-24T20:03:33.407Z,11.50
2019-02-24T20:06:02.647Z,9.80
2019-02-24T20:08:32.311Z,10.43
2019-02-24T20:11:02.477Z,9.50
2019-02-24T20:13:32.064Z,9.37
2019-02-24T20:16:01.599Z,9.30
2019-02-24T20:18:30.798Z,8.50
2019-02-24T20:21:00.944Z,9.60
2019-02-24T20:23:30.439Z,9.33
2019-02-24T20:25:59.631Z,9.87
2019-02-24T20:28:29.134Z,9.27
2019-02-24T20:31:00.554Z,9.95
2019-02-24T20:33:30.722Z,9.67
2019-02-24T20:36:00.699Z,9.20
2019-02-24T20:38:29.922Z,9.03
2019-02-24T20:41:00.347Z,8.60
2019-02-24T20:43:31.105Z,9.07
2019-02-24T20:46:00.667Z,8.30
2019-02-24T20:48:36.122Z,8.70
2019-02-24T20:51:05.331Z,9.37
2019-02-24T20:53:35.549Z,27.15
2019-02-24T20:56:05.357Z,19.07
2019-02-24T20:58:34.629Z,19.80
2019-02-24T21:01:05.427Z,17.60
2019-02-24T21:03:35.039Z,14.70
2019-02-24T21:06:04.918Z,13.32
2019-02-24T21:08:34.445Z,13.03
2019-02-24T21:11:04.032Z,11.50
2019-02-24T21:13:34.472Z,12.57
2019-02-24T21:16:03.701Z,12.67
2019-02-24T21:18:43.507Z,14.30
2019-02-24T21:21:12.995Z,14.53
2019-02-24T21:23:46.272Z,13.83
2019-02-24T21:26:15.552Z,14.07
2019-02-24T21:28:45.197Z,13.20
2019-02-24T21:31:14.684Z,13.03
2019-02-24T21:33:43.944Z,10.90
2019-02-24T21:36:13.268Z,11.97
2019-02-24T21:38:42.447Z,12.70
2019-02-24T21:41:13.143Z,11.73
2019-02-24T21:43:42.327Z,10.05
2019-02-24T21:46:11.498Z,11.63
2019-02-24T21:48:41.569Z,11.20
2019-02-24T21:51:10.872Z,11.30
2019-02-24T21:53:40.322Z,10.75
2019-02-24T21:56:09.681Z,11.73
2019-02-24T21:58:39.124Z,11.60
2019-02-24T22:01:08.398Z,11.83
2019-02-24T22:03:38.792Z,10.80
2019-02-24T22:06:08.889Z,10.88
2019-02-24T22:08:38.671Z,11.57
2019-02-24T22:11:09.190Z,11.00
2019-02-24T22:13:38.492Z,10.87
2019-02-24T22:16:08.081Z,10.23
2019-02-24T22:18:38.233Z,11.20
2019-02-24T22:21:08.230Z,10.80
2019-02-24T22:23:37.642Z,10.90
2019-02-24T22:26:07.008Z,10.00
2019-02-24T22:28:36.343Z,9.85
2019-02-24T22:31:05.667Z,9.77
2019-02-24T22:33:35.898Z,9.57
2019-02-24T22:36:05.753Z,9.33
2019-02-24T22:38:36.269Z,9.20
2019-02-24T22:41:05.725Z,9.90
2019-02-24T22:43:36.954Z,10.10
2019-02-24T22:46:06.138Z,10.50
2019-02-24T22:48:35.663Z,10.80
2019-02-24T22:51:05.646Z,10.27
2019-02-24T22:53:34.787Z,10.17
2019-02-24T22:56:04.921Z,10.10
2019-02-24T22:58:34.187Z,10.95
2019-02-24T23:01:14.187Z,10.47
2019-02-24T23:03:45.464Z,10.67
2019-02-24T23:06:14.903Z,13.40
2019-02-24T23:08:46.071Z,12.80
2019-02-24T23:11:15.259Z,12.07
2019-02-24T23:13:45.730Z,10.90
2019-02-24T23:16:16.477Z,10.83
2019-02-24T23:18:47.096Z,10.83
2019-02-24T23:21:16.444Z,12.03
2019-02-24T23:23:45.742Z,14.23
2019-02-24T23:26:15.207Z,11.70
2019-02-24T23:28:44.459Z,11.97
2019-02-24T23:31:13.715Z,11.03
2019-02-24T23:33:43.503Z,11.50
2019-02-24T23:36:12.661Z,12.07
2019-02-24T23:38:42.476Z,12.73
2019-02-24T23:41:11.987Z,12.50
2019-02-24T23:43:41.198Z,12.20
2019-02-24T23:46:10.388Z,11.73
2019-02-24T23:48:40.989Z,11.60
2019-02-24T23:51:10.134Z,11.50
2019-02-24T23:53:39.770Z,10.98
2019-02-24T23:56:09.191Z,11.03
2019-02-24T23:58:38.428Z,11.90
